createdAt,value
2019-04-01T00:01:47.815Z,4.12
2019-04-01T00:04:18.056Z,4.05
2019-04-01T00:06:48.290Z,4.25
2019-04-01T00:09:18.508Z,4.22
2019-04-01T00:11:48.915Z,4.50
2019-04-01T00:14:19.128Z,4.67
2019-04-01T00:16:49.586Z,4.60
2019-04-01T00:19:19.899Z,5.05
2019-04-01T00:21:50.112Z,4.28
2019-04-01T00:24:20.801Z,4.65
2019-04-01T00:26:51.060Z,4.97
2019-04-01T00:29:21.269Z,5.75
2019-04-01T00:31:51.504Z,6.25
2019-04-01T00:34:21.818Z,11.25
2019-04-01T00:36:52.038Z,9.25
2019-04-01T00:39:22.262Z,7.62
2019-04-01T00:41:54.147Z,6.70
2019-04-01T00:44:24.382Z,6.78
2019-04-01T00:46:54.964Z,5.78
2019-04-01T00:49:25.280Z,5.87
2019-04-01T00:51:55.939Z,5.92
2019-04-01T00:54:26.328Z,6.17
2019-04-01T00:56:56.563Z,5.28
2019-04-01T00:59:26.810Z,5.70
2019-04-01T01:01:57.281Z,5.22
2019-04-01T01:04:27.957Z,5.62
2019-04-01T01:06:58.597Z,5.33
2019-04-01T01:09:29.256Z,5.53
2019-04-01T01:11:59.536Z,5.90
2019-04-01T01:14:31.169Z,5.10
2019-04-01T01:17:01.442Z,5.45
2019-04-01T01:19:31.698Z,4.95
2019-04-01T01:22:01.939Z,4.78
2019-04-01T01:24:32.673Z,5.00
2019-04-01T01:27:02.986Z,5.58
2019-04-01T01:29:33.249Z,5.08
2019-04-01T01:32:03.615Z,5.35
2019-04-01T01:34:34.190Z,5.28
2019-04-01T01:37:04.907Z,5.87
2019-04-01T01:39:35.203Z,5.87
2019-04-01T01:42:05.492Z,5.53
2019-04-01T01:44:35.721Z,4.75
2019-04-01T01:47:05.949Z,5.78
2019-04-01T01:49:36.200Z,5.00
2019-04-01T01:52:06.428Z,5.30
2019-04-01T01:54:36.724Z,5.15
2019-04-01T01:57:06.928Z,5.10
2019-04-01T01:59:37.223Z,4.87
2019-04-01T02:02:08.575Z,5.25
2019-04-01T02:04:38.906Z,5.08
2019-04-01T02:07:09.210Z,5.35
2019-04-01T02:09:39.448Z,5.20
2019-04-01T02:12:09.671Z,5.53
2019-04-01T02:14:39.916Z,5.80
2019-04-01T02:17:10.358Z,6.00
2019-04-01T02:19:40.602Z,6.22
2019-04-01T02:22:10.850Z,5.90
2019-04-01T02:24:41.071Z,5.58
2019-04-01T02:27:11.335Z,6.20
2019-04-01T02:29:41.558Z,6.00
2019-04-01T02:32:11.839Z,6.10
2019-04-01T02:34:42.102Z,7.05
2019-04-01T02:37:12.425Z,7.53
2019-04-01T02:39:43.011Z,6.12
2019-04-01T02:42:13.655Z,6.40
2019-04-01T02:44:43.960Z,7.37
2019-04-01T02:47:14.388Z,6.70
2019-04-01T02:49:44.661Z,7.55
2019-04-01T02:52:14.875Z,7.92
2019-04-01T02:54:45.171Z,7.10
2019-04-01T02:57:15.375Z,7.10
2019-04-01T02:59:45.654Z,6.58
2019-04-01T03:02:15.977Z,7.33
2019-04-01T03:04:46.155Z,6.37
2019-04-01T03:07:16.470Z,6.17
2019-04-01T03:09:46.702Z,5.70
2019-04-01T03:12:17.048Z,5.65
2019-04-01T03:14:47.309Z,5.25
2019-04-01T03:17:19.106Z,6.30
2019-04-01T03:19:49.419Z,6.53
2019-04-01T03:22:20.068Z,6.30
2019-04-01T03:24:50.716Z,5.67
2019-04-01T03:27:21.045Z,5.80
2019-04-01T03:29:51.364Z,5.75
2019-04-01T03:32:21.620Z,6.20
2019-04-01T03:34:53.125Z,5.75
2019-04-01T03:37:23.362Z,4.72
2019-04-01T03:39:53.880Z,5.90
2019-04-01T03:42:24.105Z,5.47
2019-04-01T03:44:55.248Z,5.65
2019-04-01T03:47:26.276Z,5.75
2019-04-01T03:49:56.671Z,5.67
2019-04-01T03:52:26.909Z,5.70
2019-04-01T03:54:57.146Z,5.80
2019-04-01T03:57:27.366Z,6.00
2019-04-01T03:59:57.606Z,5.83
2019-04-01T04:02:27.905Z,6.22
2019-04-01T04:04:58.254Z,6.22
2019-04-01T04:07:28.509Z,6.70
2019-04-01T04:09:58.740Z,6.95
2019-04-01T04:12:28.978Z,7.08
2019-04-01T04:14:59.309Z,7.90
2019-04-01T04:17:29.558Z,8.45
2019-04-01T04:19:59.812Z,8.90
2019-04-01T04:22:30.061Z,8.28
2019-04-01T04:25:00.591Z,9.00
2019-04-01T04:27:31.038Z,9.25
2019-04-01T04:30:01.683Z,9.45
2019-04-01T04:32:33.058Z,10.20
2019-04-01T04:35:04.032Z,9.50
2019-04-01T04:37:34.424Z,9.20
2019-04-01T04:40:04.939Z,10.75
2019-04-01T04:42:35.294Z,10.13
2019-04-01T04:45:07.879Z,10.35
2019-04-01T04:47:39.309Z,10.63
2019-04-01T04:50:10.030Z,10.65
2019-04-01T04:52:40.693Z,10.05
2019-04-01T04:55:10.992Z,10.28
2019-04-01T04:57:41.566Z,10.82
2019-04-01T05:00:12.426Z,10.58
2019-04-01T05:02:43.372Z,11.00
2019-04-01T05:05:13.748Z,10.25
2019-04-01T05:07:43.992Z,9.95
2019-04-01T05:10:14.357Z,10.03
2019-04-01T05:12:44.601Z,9.20
2019-04-01T05:15:14.839Z,9.23
2019-04-01T05:17:45.062Z,8.98
2019-04-01T05:20:16.662Z,8.73
2019-04-01T05:22:48.006Z,7.87
2019-04-01T05:25:18.322Z,7.22
2019-04-01T05:27:49.748Z,7.58
2019-04-01T05:30:19.968Z,6.42
2019-04-01T05:32:52.504Z,6.20
2019-04-01T05:35:25.079Z,6.05
2019-04-01T05:37:56.816Z,5.87
2019-04-01T05:40:27.532Z,6.08
2019-04-01T05:42:58.962Z,6.45
2019-04-01T05:45:29.703Z,6.35
2019-04-01T05:48:00.723Z,6.15
2019-04-01T05:50:32.057Z,5.10
2019-04-01T05:53:02.567Z,5.53
2019-04-01T05:55:33.888Z,5.17
2019-04-01T05:58:04.183Z,5.15
2019-04-01T06:00:36.057Z,5.20
2019-04-01T06:03:08.521Z,4.83
2019-04-01T06:05:38.734Z,4.53
2019-04-01T06:08:09.083Z,5.00
2019-04-01T06:10:39.297Z,5.28
2019-04-01T06:13:10.944Z,4.67
2019-04-01T06:15:41.355Z,4.42
2019-04-01T06:18:11.580Z,4.53
2019-04-01T06:20:41.880Z,3.87
2019-04-01T06:23:12.118Z,3.62
2019-04-01T06:25:43.520Z,3.83
2019-04-01T06:28:13.885Z,3.83
2019-04-01T06:30:44.689Z,3.52
2019-04-01T06:33:14.962Z,3.50
2019-04-01T06:35:45.642Z,4.62
2019-04-01T06:38:16.851Z,4.05
2019-04-01T06:40:52.380Z,4.53
2019-04-01T06:43:22.685Z,3.67
2019-04-01T06:45:54.903Z,3.75
2019-04-01T06:48:27.269Z,3.87
2019-04-01T06:50:57.768Z,3.55
2019-04-01T06:53:28.688Z,3.15
2019-04-01T06:55:59.469Z,3.12
2019-04-01T06:58:30.153Z,3.00
2019-04-01T07:01:00.831Z,3.20
2019-04-01T07:03:33.145Z,3.27
2019-04-01T07:06:03.547Z,3.67
2019-04-01T07:08:34.291Z,3.08
2019-04-01T07:11:04.582Z,2.95
2019-04-01T07:13:39.704Z,3.05
2019-04-01T07:16:15.220Z,3.02
2019-04-01T07:18:40.349Z,3.40
2019-04-01T07:21:11.152Z,3.50
2019-04-01T07:23:42.068Z,3.15
2019-04-01T07:26:12.916Z,4.08
2019-04-01T07:28:43.327Z,4.17
2019-04-01T07:31:14.740Z,3.98
2019-04-01T07:33:45.576Z,3.83
2019-04-01T07:36:15.864Z,4.00
2019-04-01T07:38:46.214Z,4.20
2019-04-01T07:41:16.857Z,3.95
2019-04-01T07:43:47.608Z,3.50
2019-04-01T07:46:17.919Z,3.00
2019-04-01T07:48:48.284Z,3.33
2019-04-01T07:51:18.519Z,4.45
2019-04-01T07:53:49.654Z,4.00
2019-04-01T07:56:19.984Z,2.75
2019-04-01T07:58:50.886Z,2.85
2019-04-01T08:01:22.686Z,4.17
2019-04-01T08:03:53.457Z,3.92
2019-04-01T08:06:23.884Z,3.72
2019-04-01T08:08:54.634Z,3.15
2019-04-01T08:11:24.880Z,3.72
2019-04-01T08:13:55.478Z,3.30
2019-04-01T08:16:25.752Z,2.83
2019-04-01T08:18:56.079Z,3.17
2019-04-01T08:21:26.716Z,2.75
2019-04-01T08:23:57.166Z,3.45
2019-04-01T08:26:27.922Z,2.45
2019-04-01T08:28:58.667Z,2.75
2019-04-01T08:31:30.458Z,2.95
2019-04-01T08:34:02.319Z,2.90
2019-04-01T08:36:33.458Z,2.70
2019-04-01T08:39:05.355Z,2.70
2019-04-01T08:41:36.123Z,5.12
2019-04-01T08:44:06.810Z,3.30
2019-04-01T08:46:37.342Z,6.85
2019-04-01T08:49:09.799Z,2.92
2019-04-01T08:51:41.478Z,6.20
2019-04-01T08:54:12.191Z,3.30
2019-04-01T08:56:45.684Z,3.00
2019-04-01T08:59:16.535Z,1.32
2019-04-01T09:01:47.097Z,1.67
2019-04-01T09:04:17.910Z,1.50
2019-04-01T09:06:48.351Z,1.60
2019-04-01T09:09:18.613Z,1.87
2019-04-01T09:11:49.729Z,2.20
2019-04-01T09:14:20.678Z,1.70
2019-04-01T09:16:51.762Z,1.62
2019-04-01T09:19:22.346Z,1.90
2019-04-01T09:21:52.986Z,1.62
2019-04-01T09:24:23.305Z,1.82
2019-04-01T09:26:53.874Z,2.17
2019-04-01T09:29:24.201Z,1.90
2019-04-01T09:31:55.967Z,1.50
2019-04-01T09:34:26.606Z,1.70
2019-04-01T09:36:56.967Z,1.40
2019-04-01T09:39:29.264Z,1.62
2019-04-01T09:41:59.551Z,1.40
2019-04-01T09:44:36.638Z,1.90
2019-04-01T09:47:01.801Z,1.65
2019-04-01T09:49:32.016Z,2.05
2019-04-01T09:52:03.996Z,1.95
2019-04-01T09:54:34.939Z,1.60
2019-04-01T09:57:17.520Z,1.60
2019-04-01T09:59:38.375Z,3.08
2019-04-01T10:02:09.010Z,2.30
2019-04-01T10:04:39.657Z,2.33
2019-04-01T10:07:10.361Z,1.27
2019-04-01T10:09:40.796Z,1.90
2019-04-01T10:12:11.245Z,1.98
2019-04-01T10:14:41.596Z,1.40
2019-04-01T10:17:11.893Z,1.20
2019-04-01T10:19:42.296Z,1.20
2019-04-01T10:22:12.616Z,1.40
2019-04-01T10:24:42.951Z,1.37
2019-04-01T10:27:16.323Z,1.30
2019-04-01T10:29:47.953Z,1.62
2019-04-01T10:32:18.659Z,1.20
2019-04-01T10:34:49.337Z,1.02
2019-04-01T10:37:19.635Z,1.10
2019-04-01T10:39:49.853Z,1.00
2019-04-01T10:42:20.083Z,1.10
2019-04-01T10:44:51.877Z,0.98
2019-04-01T10:47:22.492Z,0.95
2019-04-01T10:49:52.827Z,1.70
2019-04-01T10:52:23.445Z,1.40
2019-04-01T10:54:55.484Z,1.80
2019-04-01T10:57:25.873Z,5.15
2019-04-01T10:59:56.440Z,1.02
2019-04-01T11:02:26.749Z,1.52
2019-04-01T11:04:57.042Z,1.40
2019-04-01T11:07:27.320Z,1.50
2019-04-01T11:09:57.545Z,1.10
2019-04-01T11:12:27.853Z,0.80
2019-04-01T11:14:59.077Z,1.22
2019-04-01T11:17:29.442Z,1.30
2019-04-01T11:19:59.978Z,1.17
2019-04-01T11:22:31.734Z,0.85
2019-04-01T11:25:02.484Z,0.80
2019-04-01T11:27:33.048Z,0.75
2019-04-01T11:30:05.202Z,1.10
2019-04-01T11:32:35.520Z,1.75
2019-04-01T11:35:08.477Z,1.25
2019-04-01T11:37:39.226Z,1.00
2019-04-01T11:40:11.702Z,1.17
2019-04-01T11:42:42.542Z,1.25
2019-04-01T11:45:13.305Z,1.40
2019-04-01T11:47:44.309Z,1.30
2019-04-01T11:50:15.292Z,1.70
2019-04-01T11:52:45.599Z,1.02
2019-04-01T11:55:15.810Z,1.22
2019-04-01T11:57:46.425Z,1.02
2019-04-01T12:00:17.952Z,0.70
2019-04-01T12:02:49.968Z,1.70
2019-04-01T12:05:21.749Z,1.05
2019-04-01T12:07:52.158Z,1.47
2019-04-01T12:10:22.579Z,1.07
2019-04-01T12:12:53.128Z,1.00
2019-04-01T12:15:23.799Z,1.35
2019-04-01T12:17:54.168Z,1.72
2019-04-01T12:20:24.401Z,1.02
2019-04-01T12:22:54.820Z,1.40
2019-04-01T12:25:25.529Z,1.20
2019-04-01T12:27:55.832Z,1.22
2019-04-01T12:30:26.304Z,1.10
2019-04-01T12:32:56.908Z,1.10
2019-04-01T12:35:27.253Z,1.00
2019-04-01T12:37:57.810Z,0.98
2019-04-01T12:40:30.035Z,1.42
2019-04-01T12:43:00.317Z,1.47
2019-04-01T12:45:30.968Z,0.93
2019-04-01T12:48:01.321Z,1.25
2019-04-01T12:50:31.624Z,1.07
2019-04-01T12:53:01.848Z,1.00
2019-04-01T12:55:32.785Z,1.10
2019-04-01T12:58:03.325Z,0.90
2019-04-01T13:00:33.980Z,1.05
2019-04-01T13:03:04.262Z,1.25
2019-04-01T13:05:34.491Z,2.85
2019-04-01T13:08:05.210Z,5.22
2019-04-01T13:10:35.499Z,1.90
2019-04-01T13:13:05.715Z,1.02
2019-04-01T13:15:35.952Z,2.50
2019-04-01T13:18:06.382Z,1.17
2019-04-01T13:20:38.460Z,1.10
2019-04-01T13:23:11.024Z,1.00
2019-04-01T13:25:43.152Z,1.12
2019-04-01T13:28:13.786Z,1.10
2019-04-01T13:30:44.097Z,1.32
2019-04-01T13:33:14.679Z,1.20
2019-04-01T13:35:45.050Z,1.12
2019-04-01T13:38:15.605Z,0.90
2019-04-01T13:40:46.005Z,1.20
2019-04-01T13:43:17.047Z,1.10
2019-04-01T13:45:47.841Z,1.57
2019-04-01T13:48:18.773Z,1.30
2019-04-01T13:50:50.052Z,1.40
2019-04-01T13:53:20.346Z,1.20
2019-04-01T13:55:50.910Z,1.25
2019-04-01T13:58:22.024Z,1.30
2019-04-01T14:00:52.681Z,1.40
2019-04-01T14:03:23.349Z,0.98
2019-04-01T14:05:56.050Z,1.27
2019-04-01T14:08:26.279Z,1.12
2019-04-01T14:10:57.656Z,1.30
2019-04-01T14:13:27.881Z,1.50
2019-04-01T14:15:58.542Z,1.90
2019-04-01T14:18:28.836Z,1.72
2019-04-01T14:20:59.061Z,1.65
2019-04-01T14:23:29.643Z,1.00
2019-04-01T14:26:00.809Z,1.00
2019-04-01T14:28:31.072Z,1.27
2019-04-01T14:31:01.648Z,1.17
2019-04-01T14:33:32.773Z,1.40
2019-04-01T14:36:04.664Z,1.30
2019-04-01T14:38:35.244Z,1.85
2019-04-01T14:41:05.816Z,1.92
2019-04-01T14:43:36.105Z,1.60
2019-04-01T14:46:06.691Z,1.47
2019-04-01T14:48:37.043Z,1.12
2019-04-01T14:51:07.629Z,1.57
2019-04-01T14:53:38.190Z,1.17
2019-04-01T14:56:09.478Z,1.32
2019-04-01T14:58:40.299Z,1.07
2019-04-01T15:01:11.005Z,1.00
2019-04-01T15:03:41.737Z,1.50
2019-04-01T15:06:12.455Z,1.75
2019-04-01T15:08:42.727Z,1.00
2019-04-01T15:11:13.398Z,1.47
2019-04-01T15:13:43.757Z,1.17
2019-04-01T15:16:14.059Z,1.17
2019-04-01T15:18:45.380Z,1.30
2019-04-01T15:21:16.517Z,1.80
2019-04-01T15:23:47.149Z,1.60
2019-04-01T15:26:17.576Z,1.65
2019-04-01T15:28:47.883Z,2.33
2019-04-01T15:31:18.439Z,1.25
2019-04-01T15:33:50.261Z,1.20
2019-04-01T15:36:21.188Z,1.60
2019-04-01T15:38:51.855Z,3.10
2019-04-01T15:41:22.530Z,1.50
2019-04-01T15:43:52.787Z,2.08
2019-04-01T15:46:23.218Z,1.90
2019-04-01T15:48:53.453Z,1.22
2019-04-01T15:51:24.047Z,2.52
2019-04-01T15:53:54.314Z,1.85
2019-04-01T15:56:24.928Z,2.12
2019-04-01T15:58:55.229Z,1.85
2019-04-01T16:01:25.444Z,2.22
2019-04-01T16:03:57.800Z,2.12
2019-04-01T16:06:28.456Z,2.22
2019-04-01T16:08:59.195Z,1.90
2019-04-01T16:11:29.924Z,2.90
2019-04-01T16:14:00.574Z,2.20
2019-04-01T16:16:30.900Z,1.60
2019-04-01T16:19:01.301Z,1.70
2019-04-01T16:21:31.652Z,2.47
2019-04-01T16:24:02.461Z,2.40
2019-04-01T16:26:33.806Z,2.83
2019-04-01T16:29:04.529Z,2.77
2019-04-01T16:31:34.817Z,2.40
2019-04-01T16:34:05.096Z,2.72
2019-04-01T16:36:35.311Z,2.27
2019-04-01T16:39:08.641Z,2.08
2019-04-01T16:41:39.885Z,2.52
2019-04-01T16:44:12.408Z,3.45
2019-04-01T16:46:42.703Z,2.12
2019-04-01T16:49:16.162Z,3.00
2019-04-01T16:51:46.508Z,3.67
2019-04-01T16:54:16.795Z,2.70
2019-04-01T16:56:47.046Z,2.35
2019-04-01T16:59:17.271Z,2.77
2019-04-01T17:01:47.512Z,4.22
2019-04-01T17:04:18.141Z,4.47
2019-04-01T17:06:48.857Z,8.23
2019-04-01T17:09:19.169Z,6.12
2019-04-01T17:11:54.141Z,6.90
2019-04-01T17:14:24.185Z,7.05
2019-04-01T17:16:55.172Z,8.28
2019-04-01T17:19:27.853Z,7.83
2019-04-01T17:21:57.808Z,8.85
2019-04-01T17:24:28.353Z,8.60
2019-04-01T17:27:13.382Z,7.75
2019-04-01T17:29:46.208Z,6.28
2019-04-01T17:32:16.876Z,7.17
2019-04-01T17:34:47.735Z,10.75
2019-04-01T17:37:18.428Z,12.47
2019-04-01T17:39:48.738Z,14.78
2019-04-01T17:42:19.210Z,16.30
2019-04-01T17:44:56.765Z,16.15
2019-04-01T17:47:27.507Z,14.10
2019-04-01T17:49:57.784Z,10.95
2019-04-01T17:52:28.190Z,12.18
2019-04-01T17:54:58.810Z,17.57
2019-04-01T17:57:29.092Z,19.60
2019-04-01T17:59:59.751Z,28.90
2019-04-01T18:02:31.241Z,26.73
2019-04-01T18:05:01.485Z,26.60
2019-04-01T18:07:32.066Z,18.50
2019-04-01T18:10:02.381Z,22.80
2019-04-01T18:12:32.648Z,19.37
2019-04-01T18:15:03.600Z,20.62
2019-04-01T18:17:35.307Z,19.17
2019-04-01T18:20:08.959Z,22.45
2019-04-01T18:22:39.331Z,25.05
2019-04-01T18:25:10.412Z,28.75
2019-04-01T18:27:40.634Z,25.37
2019-04-01T18:30:12.886Z,25.68
2019-04-01T18:32:43.190Z,24.82
2019-04-01T18:35:14.205Z,28.73
2019-04-01T18:37:45.033Z,31.73
2019-04-01T18:40:15.695Z,46.63
2019-04-01T18:42:45.923Z,52.95
2019-04-01T18:45:17.178Z,45.38
2019-04-01T18:47:47.464Z,46.23
2019-04-01T18:50:18.081Z,45.17
2019-04-01T18:52:48.351Z,42.00
2019-04-01T18:55:18.679Z,35.38
2019-04-01T18:57:49.005Z,36.55
2019-04-01T19:00:19.697Z,34.27
2019-04-01T19:02:49.922Z,30.97
2019-04-01T19:05:20.235Z,31.70
2019-04-01T19:07:50.557Z,51.92
2019-04-01T19:10:21.021Z,49.77
2019-04-01T19:13:05.194Z,35.35
2019-04-01T19:15:25.527Z,40.75
2019-04-01T19:17:56.485Z,36.98
2019-04-01T19:20:30.216Z,40.25
2019-04-01T19:22:59.258Z,40.15
2019-04-01T19:25:29.449Z,40.65
2019-04-01T19:27:59.678Z,42.43
2019-04-01T19:30:29.893Z,39.98
2019-04-01T19:33:00.212Z,37.88
2019-04-01T19:35:30.434Z,37.28
2019-04-01T19:38:00.706Z,36.40
2019-04-01T19:40:30.925Z,41.10
2019-04-01T19:43:03.557Z,44.27
2019-04-01T19:45:33.186Z,40.10
2019-04-01T19:48:03.818Z,39.85
2019-04-01T19:50:34.718Z,34.43
2019-04-01T19:53:05.057Z,37.70
2019-04-01T19:55:35.667Z,38.13
2019-04-01T19:58:06.037Z,37.78
2019-04-01T20:00:36.300Z,37.45
2019-04-01T20:03:06.560Z,38.02
2019-04-01T20:05:38.640Z,39.18
2019-04-01T20:08:08.942Z,42.93
2019-04-01T20:10:39.535Z,42.20
2019-04-01T20:13:10.312Z,43.20
2019-04-01T20:15:41.334Z,43.23
2019-04-01T20:18:11.945Z,46.05
2019-04-01T20:20:44.366Z,47.73
2019-04-01T20:23:14.697Z,43.80
2019-04-01T20:25:47.401Z,45.65
2019-04-01T20:28:17.208Z,44.27
2019-04-01T20:30:47.564Z,49.18
2019-04-01T20:33:18.598Z,50.40
2019-04-01T20:35:50.149Z,50.67
2019-04-01T20:38:21.898Z,52.67
2019-04-01T20:40:53.001Z,50.28
2019-04-01T20:43:23.851Z,51.83
2019-04-01T20:45:54.121Z,52.15
2019-04-01T20:48:24.460Z,51.15
2019-04-01T20:50:55.205Z,49.65
2019-04-01T20:53:25.628Z,48.87
2019-04-01T20:55:55.836Z,47.83
2019-04-01T20:58:26.101Z,49.53
2019-04-01T21:00:56.692Z,49.98
2019-04-01T21:03:27.421Z,45.15
2019-04-01T21:05:58.094Z,51.10
2019-04-01T21:08:30.031Z,48.42
2019-04-01T21:11:00.392Z,48.80
2019-04-01T21:13:30.659Z,50.88
2019-04-01T21:16:01.503Z,45.85
2019-04-01T21:18:31.760Z,50.65
2019-04-01T21:21:01.983Z,47.00
2019-04-01T21:23:32.247Z,49.95
2019-04-01T21:26:02.474Z,46.95
2019-04-01T21:28:32.790Z,47.90
2019-04-01T21:31:03.134Z,49.35
2019-04-01T21:33:33.787Z,48.42
2019-04-01T21:36:04.457Z,44.60
2019-04-01T21:38:34.714Z,45.08
2019-04-01T21:41:05.049Z,45.70
2019-04-01T21:43:35.271Z,46.85
2019-04-01T21:46:05.575Z,48.10
2019-04-01T21:48:35.821Z,47.35
2019-04-01T21:51:06.069Z,57.35
2019-04-01T21:53:36.414Z,53.63
2019-04-01T21:56:06.632Z,54.35
2019-04-01T21:58:36.944Z,56.05
2019-04-01T22:01:07.173Z,53.17
2019-04-01T22:03:37.546Z,55.00
2019-04-01T22:06:08.152Z,54.00
2019-04-01T22:08:38.442Z,47.98
2019-04-01T22:11:08.691Z,49.53
2019-04-01T22:13:38.911Z,53.10
2019-04-01T22:16:09.505Z,52.10
2019-04-01T22:18:40.176Z,44.88
2019-04-01T22:21:11.202Z,43.40
2019-04-01T22:23:42.056Z,46.98
2019-04-01T22:26:12.395Z,46.68
2019-04-01T22:28:42.977Z,36.77
2019-04-01T22:31:15.187Z,42.73
2019-04-01T22:33:46.084Z,40.88
2019-04-01T22:36:16.313Z,49.33
2019-04-01T22:38:46.569Z,45.80
2019-04-01T22:41:18.062Z,39.45
2019-04-01T22:43:48.308Z,36.53
2019-04-01T22:46:18.739Z,37.50
2019-04-01T22:48:49.562Z,34.27
2019-04-01T22:51:19.854Z,42.27
2019-04-01T22:53:50.498Z,41.77
2019-04-01T22:56:20.886Z,34.67
2019-04-01T22:58:51.536Z,35.05
2019-04-01T23:01:21.980Z,31.02
2019-04-01T23:03:53.494Z,40.10
2019-04-01T23:06:23.716Z,38.13
2019-04-01T23:08:53.959Z,36.17
2019-04-01T23:11:25.106Z,40.95
2019-04-01T23:13:55.764Z,29.55
2019-04-01T23:16:26.159Z,36.58
2019-04-01T23:18:56.469Z,42.00
2019-04-01T23:21:26.715Z,29.40
2019-04-01T23:23:59.115Z,30.95
2019-04-01T23:26:29.646Z,31.15
2019-04-01T23:28:59.951Z,34.70
2019-04-01T23:31:30.180Z,33.58
2019-04-01T23:34:00.447Z,29.52
2019-04-01T23:36:31.050Z,30.23
2019-04-01T23:39:01.316Z,34.95
2019-04-01T23:41:33.525Z,37.08
2019-04-01T23:44:04.168Z,37.67
2019-04-01T23:46:34.819Z,35.75
2019-04-01T23:49:05.115Z,39.27
2019-04-01T23:51:36.202Z,31.48
2019-04-01T23:54:07.360Z,31.50
2019-04-01T23:56:37.717Z,30.30
2019-04-01T23:59:07.950Z,33.10
